KEVV/EVV METAR and TAF weather

Enter ICAO airport designator
Station Type Date Time Source
KEVV METAR 2021/09/23 23:54 UTC NOAA

KEVV 232354Z 27003KT 10SM CLR 18/07 A3004 RMK AO2 SLP170 T01780067 10217 20178 53004 $


Station Type Date Time Source
KEVV Decoded METAR 2021/09/23 23:54 UTC NOAA

EVANSVILLE REGIONAL, IN, United States (KEVV) 38-02N 087-32W 117M
Sep 23, 2021 - 07:54 PM EDT / 2021.09.23 2354 UTC
Wind: from the W (270 degrees) at 3 MPH (3 KT):0
Visibility: 10 mile(s):0
Sky conditions: clear
Temperature: 64.0 F (17.8 C)
Dew Point: 44.1 F (6.7 C)
Relative Humidity: 48%
Pressure (altimeter): 30.04 in. Hg (1017 hPa)
Pressure tendency: 0.01 inches (0.4 hPa) higher than three hours ago
ob: KEVV 232354Z 27003KT 10SM CLR 18/07 A3004 RMK AO2 SLP170 T01780067 10217 20178 53004
cycle: 0

Station Type Date Time Source
KEVV TAF 2021/09/23 18:22 UTC NOAA

TAF KEVV 231720Z 2318/2418 30010KT P6SM FEW060
FM240000 VRB02KT P6SM SKC
FM241500 21007KT P6SM SKC

Example: see airport list